Time;durP1;ratioP1;P1;durP2;ratioP2;P2;SDS_P1;SDS_P2;PMS_P1;PMS_P2;Temp;Humidity;BMP_temperature;BMP_pressure;BME280_temperature;BME280_humidity;BME280_pressure;Samples;Min_cycle;Max_cycle;Signal;HPM_P1;HPM_P2
2020/12/15 15:57:25;;;;;;;58.42;26.05;;;9.30;99.90;;;;;;5085680;27;20437;-65
2020/12/15 15:59:50;;;;;;;60.20;29.75;;;9.20;99.90;;;;;;5085244;28;20028;-63
2020/12/15 16:02:16;;;;;;;73.82;32.03;;;9.20;99.90;;;;;;5084502;28;20039;-64
2020/12/15 16:04:45;;;;;;;62.25;29.52;;;9.20;99.90;;;;;;5068159;28;20470;-64
2020/12/15 16:07:10;;;;;;;68.55;30.52;;;9.10;99.90;;;;;;5045112;28;20021;-63
2020/12/15 16:09:36;;;;;;;62.58;28.92;;;9.10;99.90;;;;;;5062270;28;20040;-64
2020/12/15 16:12:02;;;;;;;68.28;30.95;;;9.10;99.90;;;;;;5084692;28;20028;-62
2020/12/15 16:14:27;;;;;;;50.53;26.85;;;9.10;99.90;;;;;;5070829;28;20434;-62
2020/12/15 16:16:55;;;;;;;62.75;29.10;;;9.10;99.90;;;;;;5071717;28;20032;-66
2020/12/15 16:19:22;;;;;;;65.65;29.85;;;9.10;99.90;;;;;;5063347;28;20737;-62
2020/12/15 16:21:47;;;;;;;56.97;28.23;;;9.10;99.90;;;;;;5073062;28;20064;-63
2020/12/15 16:24:15;;;;;;;52.50;26.65;;;9.10;99.90;;;;;;5060833;28;20441;-65
2020/12/15 16:26:44;;;;;;;53.30;26.23;;;9.10;99.90;;;;;;5052054;28;20055;-63
2020/12/15 16:29:12;;;;;;;54.47;25.88;;;9.10;99.90;;;;;;5058087;28;20013;-65
2020/12/15 16:31:46;;;;;;;52.25;25.83;;;9.20;99.90;;;;;;5050032;28;20033;-64
2020/12/15 16:34:12;;;;;;;48.17;25.45;;;9.20;99.90;;;;;;5056634;28;20389;-64
2020/12/15 16:36:38;;;;;;;45.25;23.85;;;9.20;99.90;;;;;;5058504;28;20060;-63
2020/12/15 16:39:04;;;;;;;43.85;22.65;;;9.20;99.90;;;;;;5032916;28;20021;-63
2020/12/15 16:41:29;;;;;;;41.95;22.05;;;9.20;99.90;;;;;;5051351;28;20029;-63
2020/12/15 16:43:55;;;;;;;49.65;23.40;;;9.20;99.90;;;;;;5056301;28;20033;-63
2020/12/15 16:46:21;;;;;;;50.78;24.10;;;9.20;99.90;;;;;;5057097;28;20028;-65
2020/12/15 16:48:47;;;;;;;40.03;21.70;;;9.10;99.90;;;;;;5061409;28;20034;-63
2020/12/15 16:51:17;;;;;;;46.35;23.95;;;9.10;99.90;;;;;;5058572;28;20028;-64
2020/12/15 16:53:42;;;;;;;37.85;22.00;;;9.10;99.90;;;;;;5052142;28;20433;-65
2020/12/15 16:56:08;;;;;;;41.50;20.65;;;9.20;99.90;;;;;;5055141;28;20453;-63
2020/12/15 16:58:34;;;;;;;41.60;20.83;;;9.20;99.90;;;;;;5049785;28;20075;-61
2020/12/15 17:01:00;;;;;;;33.65;18.30;;;9.20;99.90;;;;;;5047343;28;20496;-62
2020/12/15 17:03:27;;;;;;;36.25;19.75;;;9.20;99.90;;;;;;5050935;28;20025;-62
2020/12/15 17:05:53;;;;;;;45.97;23.33;;;9.20;99.90;;;;;;5050329;28;20109;-64
2020/12/15 17:08:19;;;;;;;29.52;18.10;;;9.20;99.90;;;;;;5042608;28;20111;-64
2020/12/15 17:10:44;;;;;;;34.50;19.42;;;9.10;99.90;;;;;;5052745;28;20036;-63
2020/12/15 17:13:11;;;;;;;38.38;19.73;;;9.10;99.90;;;;;;5049884;28;20431;-61
2020/12/15 17:15:36;;;;;;;35.20;19.83;;;9.10;99.90;;;;;;5063362;28;20063;-63
2020/12/15 17:18:02;;;;;;;39.00;20.90;;;9.00;99.90;;;;;;5036994;28;20106;-63
2020/12/15 17:20:27;;;;;;;40.55;20.70;;;9.00;99.90;;;;;;5043366;28;20037;-65
2020/12/15 17:22:57;;;;;;;33.70;18.67;;;9.00;99.90;;;;;;5068035;28;20047;-62
2020/12/15 17:25:25;;;;;;;33.47;19.98;;;9.00;99.90;;;;;;5055565;28;20693;-63
2020/12/15 17:27:52;;;;;;;36.85;19.67;;;8.90;99.90;;;;;;5042547;28;20108;-64
2020/12/15 17:30:17;;;;;;;26.05;14.73;;;8.80;99.90;;;;;;5038515;28;20145;-63
2020/12/15 17:32:43;;;;;;;41.80;18.13;;;8.80;99.90;;;;;;5042040;28;20557;-64
2020/12/15 17:35:08;;;;;;;26.20;15.65;;;8.60;99.90;;;;;;5059593;28;20899;-62
2020/12/15 17:37:34;;;;;;;30.77;16.98;;;8.50;99.90;;;;;;5046162;28;20030;-63
2020/12/15 17:40:00;;;;;;;35.35;18.33;;;8.30;99.90;;;;;;5063091;28;20031;-64
2020/12/15 17:42:26;;;;;;;36.22;19.50;;;8.10;99.90;;;;;;5056002;28;20047;-64
2020/12/15 17:44:51;;;;;;;28.52;17.55;;;8.00;99.90;;;;;;5047289;28;20064;-65
2020/12/15 17:47:17;;;;;;;59.88;19.60;;;7.90;99.90;;;;;;5054010;28;20068;-65
2020/12/15 17:49:42;;;;;;;27.90;16.77;;;7.90;99.90;;;;;;5049583;28;20040;-64
2020/12/15 17:52:08;;;;;;;51.70;19.08;;;7.80;99.90;;;;;;5061177;28;20080;-65
2020/12/15 17:54:34;;;;;;;28.70;16.85;;;7.80;99.90;;;;;;5054621;28;20020;-65
2020/12/15 17:56:59;;;;;;;35.92;15.93;;;7.70;99.90;;;;;;5047096;28;20033;-65
2020/12/15 17:59:25;;;;;;;28.95;17.73;;;7.70;99.90;;;;;;5035640;28;20030;-66
2020/12/15 18:01:50;;;;;;;22.70;14.15;;;7.70;99.90;;;;;;5040980;28;20658;-64
2020/12/15 18:04:17;;;;;;;21.40;13.60;;;7.70;99.90;;;;;;5044761;28;20044;-64
2020/12/15 18:06:43;;;;;;;30.33;17.20;;;7.70;99.90;;;;;;5045456;28;20777;-64
2020/12/15 18:09:08;;;;;;;24.55;14.88;;;7.80;99.90;;;;;;5037767;28;20047;-65
2020/12/15 18:11:34;;;;;;;27.10;17.17;;;7.80;99.90;;;;;;5042817;28;20033;-64
2020/12/15 18:13:59;;;;;;;28.65;17.27;;;7.70;99.90;;;;;;5061968;28;20029;-65
2020/12/15 18:16:34;;;;;;;27.23;14.95;;;7.60;99.90;;;;;;5038294;28;20068;-66
2020/12/15 18:19:02;;;;;;;23.38;13.82;;;7.50;99.90;;;;;;5035670;28;20071;-68
2020/12/15 18:21:31;;;;;;;20.17;14.02;;;7.30;99.90;;;;;;5044719;28;20028;-65
2020/12/15 18:23:58;;;;;;;25.55;14.35;;;7.30;99.90;;;;;;5051115;28;20032;-66
2020/12/15 18:26:24;;;;;;;20.27;12.85;;;7.00;99.90;;;;;;5050349;28;20040;-62
2020/12/15 18:28:50;;;;;;;29.00;15.27;;;7.00;99.90;;;;;;5047689;28;20029;-62
2020/12/15 18:31:17;;;;;;;32.92;16.45;;;7.00;99.90;;;;;;5043109;28;20035;-63
2020/12/15 18:33:44;;;;;;;66.97;17.88;;;6.80;99.90;;;;;;5047528;28;20021;-63
2020/12/15 18:36:10;;;;;;;33.40;16.23;;;6.70;99.90;;;;;;5045411;28;20244;-63
2020/12/15 18:38:35;;;;;;;46.35;19.60;;;6.80;99.90;;;;;;5040248;28;20040;-64
2020/12/15 18:41:01;;;;;;;45.00;18.92;;;6.70;99.90;;;;;;5046328;28;20680;-63
2020/12/15 18:43:26;;;;;;;31.27;17.48;;;6.60;99.90;;;;;;5042653;28;20514;-64
2020/12/15 18:45:52;;;;;;;31.02;19.25;;;6.60;99.90;;;;;;5041190;28;20518;-64
2020/12/15 18:48:18;;;;;;;75.90;20.25;;;6.50;99.90;;;;;;5039150;28;20029;-63
2020/12/15 18:50:43;;;;;;;56.60;20.73;;;6.50;99.90;;;;;;5045698;28;20031;-61
2020/12/15 18:53:09;;;;;;;125.30;22.63;;;6.40;99.90;;;;;;5042408;28;20104;-62
2020/12/15 18:55:34;;;;;;;88.63;21.33;;;6.40;99.90;;;;;;5029773;28;20039;-61
2020/12/15 18:58:00;;;;;;;73.20;20.60;;;6.30;99.90;;;;;;5067310;28;20032;-61
2020/12/15 19:00:25;;;;;;;65.43;20.65;;;6.30;99.90;;;;;;5053926;28;20079;-63
2020/12/15 19:02:51;;;;;;;31.67;18.00;;;6.20;99.90;;;;;;5036293;28;20051;-62
2020/12/15 19:05:16;;;;;;;25.75;15.20;;;6.20;99.90;;;;;;5044407;28;20134;-63
2020/12/15 19:07:42;;;;;;;19.05;13.90;;;6.20;99.90;;;;;;5047914;28;20032;-63
2020/12/15 19:10:08;;;;;;;18.40;13.38;;;6.20;99.90;;;;;;5039980;28;20025;-64
2020/12/15 19:12:37;;;;;;;22.13;13.77;;;6.20;99.90;;;;;;5039283;28;20071;-65
2020/12/15 19:15:04;;;;;;;24.60;15.43;;;6.30;99.90;;;;;;5049231;28;20026;-63
2020/12/15 19:17:29;;;;;;;23.55;15.73;;;6.30;99.90;;;;;;5051443;28;20039;-62
2020/12/15 19:19:55;;;;;;;19.88;13.13;;;6.30;99.90;;;;;;5053559;28;20037;-64
2020/12/15 19:22:21;;;;;;;20.35;13.98;;;6.40;99.90;;;;;;5060575;28;20028;-65
2020/12/15 19:24:46;;;;;;;21.75;13.15;;;6.40;99.90;;;;;;5043368;28;20096;-64
2020/12/15 19:27:12;;;;;;;22.83;14.95;;;6.40;99.90;;;;;;5051712;28;20033;-63
2020/12/15 19:29:38;;;;;;;24.40;14.68;;;6.50;99.90;;;;;;5056114;28;20056;-63
2020/12/15 19:32:04;;;;;;;23.55;14.50;;;6.40;99.90;;;;;;5045397;28;20025;-64
2020/12/15 19:34:29;;;;;;;23.85;14.35;;;6.40;99.90;;;;;;5054444;28;20025;-64
2020/12/15 19:36:55;;;;;;;18.88;13.07;;;6.40;99.90;;;;;;5059204;28;20029;-63
2020/12/15 19:39:21;;;;;;;21.15;13.75;;;6.20;99.90;;;;;;5043269;28;20033;-64
2020/12/15 19:41:46;;;;;;;20.42;12.40;;;6.20;99.90;;;;;;5036115;28;20554;-64
2020/12/15 19:44:12;;;;;;;18.63;12.00;;;6.20;99.90;;;;;;5042413;28;20040;-64
2020/12/15 19:46:37;;;;;;;19.73;13.05;;;6.20;99.90;;;;;;5046909;28;20045;-63
2020/12/15 19:49:04;;;;;;;22.27;12.77;;;6.30;99.90;;;;;;5049929;28;20027;-63
2020/12/15 19:51:30;;;;;;;19.33;11.02;;;6.10;99.90;;;;;;5041559;28;20029;-62
2020/12/15 19:53:55;;;;;;;20.08;12.52;;;6.10;99.90;;;;;;5033144;28;20025;-63
2020/12/15 19:56:28;;;;;;;19.27;12.10;;;6.00;99.90;;;;;;5036501;28;20065;-62
2020/12/15 19:58:54;;;;;;;20.20;12.25;;;6.00;99.90;;;;;;5031466;28;20031;-63
2020/12/15 20:01:20;;;;;;;22.58;12.75;;;6.00;99.90;;;;;;5051089;28;20096;-64
2020/12/15 20:03:46;;;;;;;22.98;14.23;;;6.00;99.90;;;;;;5044232;28;20033;-64
2020/12/15 20:06:12;;;;;;;21.60;13.40;;;6.00;99.90;;;;;;5055302;28;20024;-62
2020/12/15 20:08:38;;;;;;;19.27;12.93;;;6.00;99.90;;;;;;5042210;28;20802;-63
2020/12/15 20:11:03;;;;;;;14.98;9.98;;;6.00;99.90;;;;;;5055507;28;20056;-63
2020/12/15 20:13:30;;;;;;;14.70;10.25;;;6.00;99.90;;;;;;5070936;28;20545;-63
2020/12/15 20:15:55;;;;;;;22.67;12.60;;;6.10;99.90;;;;;;5067435;28;20037;-63
2020/12/15 20:18:21;;;;;;;17.83;13.13;;;6.10;99.90;;;;;;5046749;28;20029;-64
2020/12/15 20:20:47;;;;;;;20.65;11.95;;;6.10;99.90;;;;;;5052340;28;20033;-63
2020/12/15 20:23:13;;;;;;;18.42;12.68;;;6.10;99.90;;;;;;5052523;28;20021;-65
2020/12/15 20:25:40;;;;;;;19.73;13.63;;;6.10;99.90;;;;;;5061295;28;20021;-65
2020/12/15 20:28:05;;;;;;;18.38;11.82;;;6.10;99.90;;;;;;5058706;28;20498;-65
2020/12/15 20:30:31;;;;;;;21.83;12.80;;;6.10;99.90;;;;;;5060885;28;20032;-62
2020/12/15 20:32:57;;;;;;;21.95;12.30;;;6.00;99.90;;;;;;5064943;28;20044;-64
2020/12/15 20:35:22;;;;;;;18.73;13.32;;;5.90;99.90;;;;;;5056106;28;20029;-64
2020/12/15 20:37:48;;;;;;;19.98;13.88;;;5.60;99.90;;;;;;5071882;28;20084;-64
2020/12/15 20:40:14;;;;;;;26.30;15.30;;;5.40;99.90;;;;;;5071636;28;20037;-64
2020/12/15 20:42:39;;;;;;;28.83;14.63;;;5.40;99.90;;;;;;5074730;28;20036;-65
